sensor_id;sensor_type;location;lat;lon;timestamp;temperature;humidity
666;DHT22;315;48.738;9.126;2024-02-23T00:00:30;5.50;99.90
666;DHT22;315;48.738;9.126;2024-02-23T00:02:56;5.50;99.90
666;DHT22;315;48.738;9.126;2024-02-23T00:05:23;5.50;99.90
666;DHT22;315;48.738;9.126;2024-02-23T00:07:49;5.40;99.90
666;DHT22;315;48.738;9.126;2024-02-23T00:10:14;5.40;99.90
666;DHT22;315;48.738;9.126;2024-02-23T00:12:40;5.50;99.90
666;DHT22;315;48.738;9.126;2024-02-23T00:15:06;5.40;99.90
666;DHT22;315;48.738;9.126;2024-02-23T00:17:32;5.40;99.90
666;DHT22;315;48.738;9.126;2024-02-23T00:19:58;5.40;99.90
666;DHT22;315;48.738;9.126;2024-02-23T00:22:23;5.40;99.90
666;DHT22;315;48.738;9.126;2024-02-23T00:24:51;5.40;99.90
666;DHT22;315;48.738;9.126;2024-02-23T00:27:16;5.50;99.90
666;DHT22;315;48.738;9.126;2024-02-23T00:29:42;5.50;99.90
666;DHT22;315;48.738;9.126;2024-02-23T00:32:07;5.40;99.90
666;DHT22;315;48.738;9.126;2024-02-23T00:34:33;5.40;99.90
666;DHT22;315;48.738;9.126;2024-02-23T00:36:59;5.40;99.90
666;DHT22;315;48.738;9.126;2024-02-23T00:39:24;5.40;99.90
666;DHT22;315;48.738;9.126;2024-02-23T00:41:50;5.50;99.90
666;DHT22;315;48.738;9.126;2024-02-23T00:44:16;5.50;99.90
666;DHT22;315;48.738;9.126;2024-02-23T00:46:41;5.50;99.90
666;DHT22;315;48.738;9.126;2024-02-23T00:49:07;5.50;99.90
666;DHT22;315;48.738;9.126;2024-02-23T00:51:32;5.50;99.90
666;DHT22;315;48.738;9.126;2024-02-23T00:53:58;5.60;99.90
666;DHT22;315;48.738;9.126;2024-02-23T00:56:23;5.60;99.90
666;DHT22;315;48.738;9.126;2024-02-23T00:58:49;5.60;99.90
666;DHT22;315;48.738;9.126;2024-02-23T01:01:15;5.60;99.90
666;DHT22;315;48.738;9.126;2024-02-23T01:03:40;5.70;99.90
666;DHT22;315;48.738;9.126;2024-02-23T01:06:06;5.70;99.90
666;DHT22;315;48.738;9.126;2024-02-23T01:08:31;5.70;99.90
666;DHT22;315;48.738;9.126;2024-02-23T01:10:57;5.70;99.90
666;DHT22;315;48.738;9.126;2024-02-23T01:13:22;5.70;99.90
666;DHT22;315;48.738;9.126;2024-02-23T01:15:48;5.70;99.90
666;DHT22;315;48.738;9.126;2024-02-23T01:18:13;5.70;99.90
666;DHT22;315;48.738;9.126;2024-02-23T01:20:39;5.70;99.90
666;DHT22;315;48.738;9.126;2024-02-23T01:23:05;5.70;99.90
666;DHT22;315;48.738;9.126;2024-02-23T01:25:30;5.70;99.90
666;DHT22;315;48.738;9.126;2024-02-23T01:27:56;5.70;99.90
666;DHT22;315;48.738;9.126;2024-02-23T01:30:21;5.70;99.90
666;DHT22;315;48.738;9.126;2024-02-23T01:32:47;5.70;99.90
666;DHT22;315;48.738;9.126;2024-02-23T01:35:13;5.70;99.90
666;DHT22;315;48.738;9.126;2024-02-23T01:37:38;5.60;99.90
666;DHT22;315;48.738;9.126;2024-02-23T01:40:04;5.60;99.90
666;DHT22;315;48.738;9.126;2024-02-23T01:42:30;5.60;99.90
666;DHT22;315;48.738;9.126;2024-02-23T01:44:55;5.60;99.90
666;DHT22;315;48.738;9.126;2024-02-23T01:47:22;5.60;99.90
666;DHT22;315;48.738;9.126;2024-02-23T01:49:48;5.60;99.90
666;DHT22;315;48.738;9.126;2024-02-23T01:52:15;5.60;99.90
666;DHT22;315;48.738;9.126;2024-02-23T01:54:41;5.60;99.90
666;DHT22;315;48.738;9.126;2024-02-23T01:57:07;5.60;99.90
666;DHT22;315;48.738;9.126;2024-02-23T01:59:35;5.60;99.90
666;DHT22;315;48.738;9.126;2024-02-23T02:02:02;5.70;99.90
666;DHT22;315;48.738;9.126;2024-02-23T02:04:28;5.70;99.90
666;DHT22;315;48.738;9.126;2024-02-23T02:06:54;5.60;99.90
666;DHT22;315;48.738;9.126;2024-02-23T02:09:20;5.70;99.90
666;DHT22;315;48.738;9.126;2024-02-23T02:11:46;5.60;99.90
666;DHT22;315;48.738;9.126;2024-02-23T02:14:12;5.60;99.90
666;DHT22;315;48.738;9.126;2024-02-23T02:16:39;5.60;99.90
666;DHT22;315;48.738;9.126;2024-02-23T02:19:04;5.60;99.90
666;DHT22;315;48.738;9.126;2024-02-23T02:21:31;5.60;99.90
666;DHT22;315;48.738;9.126;2024-02-23T02:23:57;5.60;99.90
666;DHT22;315;48.738;9.126;2024-02-23T02:26:22;5.60;99.90
666;DHT22;315;48.738;9.126;2024-02-23T02:28:48;5.60;99.90
666;DHT22;315;48.738;9.126;2024-02-23T02:31:13;5.60;99.90
666;DHT22;315;48.738;9.126;2024-02-23T02:33:40;5.60;99.90
666;DHT22;315;48.738;9.126;2024-02-23T02:36:06;5.60;99.90
666;DHT22;315;48.738;9.126;2024-02-23T02:38:31;5.60;99.90
666;DHT22;315;48.738;9.126;2024-02-23T02:41:01;5.60;99.90
666;DHT22;315;48.738;9.126;2024-02-23T02:43:27;5.60;99.90
666;DHT22;315;48.738;9.126;2024-02-23T02:45:53;5.60;99.90
666;DHT22;315;48.738;9.126;2024-02-23T02:48:18;5.60;99.90
666;DHT22;315;48.738;9.126;2024-02-23T02:50:44;5.60;99.90
666;DHT22;315;48.738;9.126;2024-02-23T02:53:10;5.60;99.90
666;DHT22;315;48.738;9.126;2024-02-23T02:55:36;5.60;99.90
666;DHT22;315;48.738;9.126;2024-02-23T02:58:02;5.50;99.90
666;DHT22;315;48.738;9.126;2024-02-23T03:00:28;5.50;99.90
666;DHT22;315;48.738;9.126;2024-02-23T03:02:53;5.50;99.90
666;DHT22;315;48.738;9.126;2024-02-23T03:05:19;5.50;99.90
666;DHT22;315;48.738;9.126;2024-02-23T03:07:44;5.50;99.90
666;DHT22;315;48.738;9.126;2024-02-23T03:10:10;5.50;99.90
666;DHT22;315;48.738;9.126;2024-02-23T03:12:36;5.50;99.90
666;DHT22;315;48.738;9.126;2024-02-23T03:15:02;5.50;99.90
666;DHT22;315;48.738;9.126;2024-02-23T03:17:31;5.50;99.90
666;DHT22;315;48.738;9.126;2024-02-23T03:19:57;5.50;99.90
666;DHT22;315;48.738;9.126;2024-02-23T03:22:23;5.50;99.90
666;DHT22;315;48.738;9.126;2024-02-23T03:24:48;5.50;99.90
666;DHT22;315;48.738;9.126;2024-02-23T03:27:14;5.50;99.90
666;DHT22;315;48.738;9.126;2024-02-23T03:29:39;5.50;99.90
666;DHT22;315;48.738;9.126;2024-02-23T03:32:05;5.50;99.90
666;DHT22;315;48.738;9.126;2024-02-23T03:34:31;5.50;99.90
666;DHT22;315;48.738;9.126;2024-02-23T03:36:57;5.50;99.90
666;DHT22;315;48.738;9.126;2024-02-23T03:39:24;5.40;99.90
666;DHT22;315;48.738;9.126;2024-02-23T03:41:49;5.40;99.90
666;DHT22;315;48.738;9.126;2024-02-23T03:44:15;5.40;99.90
666;DHT22;315;48.738;9.126;2024-02-23T03:46:40;5.40;99.90
666;DHT22;315;48.738;9.126;2024-02-23T03:49:06;5.40;99.90
666;DHT22;315;48.738;9.126;2024-02-23T03:51:31;5.40;99.90
666;DHT22;315;48.738;9.126;2024-02-23T03:54:00;5.40;99.90
666;DHT22;315;48.738;9.126;2024-02-23T03:56:25;5.40;99.90
666;DHT22;315;48.738;9.126;2024-02-23T03:58:51;5.30;99.90
666;DHT22;315;48.738;9.126;2024-02-23T04:01:16;5.40;99.90
666;DHT22;315;48.738;9.126;2024-02-23T04:03:42;5.30;99.90
666;DHT22;315;48.738;9.126;2024-02-23T04:06:07;5.30;99.90
666;DHT22;315;48.738;9.126;2024-02-23T04:08:33;5.30;99.90
666;DHT22;315;48.738;9.126;2024-02-23T04:10:59;5.30;99.90
666;DHT22;315;48.738;9.126;2024-02-23T04:13:24;5.30;99.90
666;DHT22;315;48.738;9.126;2024-02-23T04:15:50;5.30;99.90
666;DHT22;315;48.738;9.126;2024-02-23T04:18:15;5.30;99.90
666;DHT22;315;48.738;9.126;2024-02-23T04:20:41;5.30;99.90
666;DHT22;315;48.738;9.126;2024-02-23T04:23:07;5.30;99.90
666;DHT22;315;48.738;9.126;2024-02-23T04:25:32;5.30;99.90
666;DHT22;315;48.738;9.126;2024-02-23T04:27:58;5.30;99.90
666;DHT22;315;48.738;9.126;2024-02-23T04:30:23;5.20;99.90
666;DHT22;315;48.738;9.126;2024-02-23T04:32:49;5.20;99.90
666;DHT22;315;48.738;9.126;2024-02-23T04:35:14;5.20;99.90
666;DHT22;315;48.738;9.126;2024-02-23T04:37:43;5.20;99.90
666;DHT22;315;48.738;9.126;2024-02-23T04:40:10;5.20;99.90
666;DHT22;315;48.738;9.126;2024-02-23T04:42:36;5.20;99.90
666;DHT22;315;48.738;9.126;2024-02-23T04:45:01;5.20;99.90
666;DHT22;315;48.738;9.126;2024-02-23T04:47:27;5.20;99.90
666;DHT22;315;48.738;9.126;2024-02-23T04:49:52;5.20;99.90
666;DHT22;315;48.738;9.126;2024-02-23T04:52:18;5.20;99.90
666;DHT22;315;48.738;9.126;2024-02-23T04:54:44;5.10;99.90
666;DHT22;315;48.738;9.126;2024-02-23T04:57:09;5.10;99.90
666;DHT22;315;48.738;9.126;2024-02-23T04:59:35;5.10;99.90
666;DHT22;315;48.738;9.126;2024-02-23T05:02:00;5.10;99.90
666;DHT22;315;48.738;9.126;2024-02-23T05:04:26;5.10;99.90
666;DHT22;315;48.738;9.126;2024-02-23T05:06:52;5.10;99.90
666;DHT22;315;48.738;9.126;2024-02-23T05:09:17;5.10;99.90
666;DHT22;315;48.738;9.126;2024-02-23T05:11:43;5.10;99.90
666;DHT22;315;48.738;9.126;2024-02-23T05:14:08;5.10;99.90
666;DHT22;315;48.738;9.126;2024-02-23T05:16:34;5.10;99.90
666;DHT22;315;48.738;9.126;2024-02-23T05:18:59;5.00;99.90
666;DHT22;315;48.738;9.126;2024-02-23T05:21:25;5.00;99.90
666;DHT22;315;48.738;9.126;2024-02-23T05:23:51;5.00;99.90
666;DHT22;315;48.738;9.126;2024-02-23T05:26:17;5.00;99.90
666;DHT22;315;48.738;9.126;2024-02-23T05:28:43;5.00;99.90
666;DHT22;315;48.738;9.126;2024-02-23T05:31:09;4.90;99.90
666;DHT22;315;48.738;9.126;2024-02-23T05:33:35;4.90;99.90
666;DHT22;315;48.738;9.126;2024-02-23T05:36:00;4.90;99.90
666;DHT22;315;48.738;9.126;2024-02-23T05:38:26;4.90;99.90
666;DHT22;315;48.738;9.126;2024-02-23T05:40:51;4.80;99.90
666;DHT22;315;48.738;9.126;2024-02-23T05:43:17;4.80;99.90
666;DHT22;315;48.738;9.126;2024-02-23T05:45:42;4.80;99.90
666;DHT22;315;48.738;9.126;2024-02-23T05:48:09;4.80;99.90
666;DHT22;315;48.738;9.126;2024-02-23T05:50:34;4.80;99.90
666;DHT22;315;48.738;9.126;2024-02-23T05:53:00;4.80;99.90
666;DHT22;315;48.738;9.126;2024-02-23T05:55:25;4.70;99.90
666;DHT22;315;48.738;9.126;2024-02-23T05:57:54;4.70;99.90
666;DHT22;315;48.738;9.126;2024-02-23T06:00:20;4.60;99.90
666;DHT22;315;48.738;9.126;2024-02-23T06:02:47;4.50;99.90
666;DHT22;315;48.738;9.126;2024-02-23T06:05:12;4.40;99.90
666;DHT22;315;48.738;9.126;2024-02-23T06:07:38;4.30;99.90
666;DHT22;315;48.738;9.126;2024-02-23T06:10:04;4.30;99.90
666;DHT22;315;48.738;9.126;2024-02-23T06:12:30;4.30;99.90
666;DHT22;315;48.738;9.126;2024-02-23T06:14:56;4.30;99.90
666;DHT22;315;48.738;9.126;2024-02-23T06:17:23;4.30;99.90
666;DHT22;315;48.738;9.126;2024-02-23T06:19:49;4.30;99.90
666;DHT22;315;48.738;9.126;2024-02-23T06:22:15;4.30;99.90
666;DHT22;315;48.738;9.126;2024-02-23T06:24:46;4.30;99.90
666;DHT22;315;48.738;9.126;2024-02-23T06:27:12;4.30;99.90
666;DHT22;315;48.738;9.126;2024-02-23T06:29:37;4.30;99.90
666;DHT22;315;48.738;9.126;2024-02-23T06:32:03;4.30;99.90
666;DHT22;315;48.738;9.126;2024-02-23T06:34:29;4.30;99.90
666;DHT22;315;48.738;9.126;2024-02-23T06:36:54;4.30;99.90
666;DHT22;315;48.738;9.126;2024-02-23T06:39:19;4.30;99.90
666;DHT22;315;48.738;9.126;2024-02-23T06:41:45;4.30;99.90
666;DHT22;315;48.738;9.126;2024-02-23T06:44:11;4.30;99.90
666;DHT22;315;48.738;9.126;2024-02-23T06:46:36;4.40;99.90
666;DHT22;315;48.738;9.126;2024-02-23T06:49:02;4.50;99.90
666;DHT22;315;48.738;9.126;2024-02-23T06:51:28;4.70;99.90
666;DHT22;315;48.738;9.126;2024-02-23T06:53:53;4.80;99.90
666;DHT22;315;48.738;9.126;2024-02-23T06:56:19;4.80;99.90
666;DHT22;315;48.738;9.126;2024-02-23T06:58:44;4.70;99.90
666;DHT22;315;48.738;9.126;2024-02-23T07:01:10;4.70;99.90
666;DHT22;315;48.738;9.126;2024-02-23T07:03:38;4.80;99.90
666;DHT22;315;48.738;9.126;2024-02-23T07:06:05;4.70;99.90
666;DHT22;315;48.738;9.126;2024-02-23T07:08:30;4.60;99.90
666;DHT22;315;48.738;9.126;2024-02-23T07:10:56;4.60;99.90
666;DHT22;315;48.738;9.126;2024-02-23T07:13:22;4.60;99.90
666;DHT22;315;48.738;9.126;2024-02-23T07:15:47;4.70;99.90
666;DHT22;315;48.738;9.126;2024-02-23T07:18:13;4.70;99.90
666;DHT22;315;48.738;9.126;2024-02-23T07:20:39;4.70;99.90
666;DHT22;315;48.738;9.126;2024-02-23T07:23:05;4.80;99.90
666;DHT22;315;48.738;9.126;2024-02-23T07:25:31;4.80;99.90
666;DHT22;315;48.738;9.126;2024-02-23T07:27:56;4.80;99.90
666;DHT22;315;48.738;9.126;2024-02-23T07:30:22;5.00;99.90
666;DHT22;315;48.738;9.126;2024-02-23T07:32:47;5.10;99.90
666;DHT22;315;48.738;9.126;2024-02-23T07:35:13;5.20;99.90
666;DHT22;315;48.738;9.126;2024-02-23T07:37:39;5.20;99.90
666;DHT22;315;48.738;9.126;2024-02-23T07:40:05;5.30;99.90
666;DHT22;315;48.738;9.126;2024-02-23T07:42:32;5.30;99.90
666;DHT22;315;48.738;9.126;2024-02-23T07:44:57;5.50;99.90
666;DHT22;315;48.738;9.126;2024-02-23T07:47:24;5.60;99.90
666;DHT22;315;48.738;9.126;2024-02-23T07:49:49;5.70;99.90
666;DHT22;315;48.738;9.126;2024-02-23T07:52:15;5.70;99.90
666;DHT22;315;48.738;9.126;2024-02-23T07:54:40;5.80;99.90
666;DHT22;315;48.738;9.126;2024-02-23T07:57:06;5.70;99.90
666;DHT22;315;48.738;9.126;2024-02-23T07:59:33;5.70;99.90
666;DHT22;315;48.738;9.126;2024-02-23T08:01:58;5.60;99.90
666;DHT22;315;48.738;9.126;2024-02-23T08:04:24;5.50;99.90
666;DHT22;315;48.738;9.126;2024-02-23T08:06:49;5.40;99.90
666;DHT22;315;48.738;9.126;2024-02-23T08:09:16;5.40;99.90
666;DHT22;315;48.738;9.126;2024-02-23T08:11:43;5.40;99.90
666;DHT22;315;48.738;9.126;2024-02-23T08:14:08;5.40;99.90
666;DHT22;315;48.738;9.126;2024-02-23T08:16:34;5.40;99.90
666;DHT22;315;48.738;9.126;2024-02-23T08:18:59;5.40;99.90
666;DHT22;315;48.738;9.126;2024-02-23T08:21:25;5.50;99.90
666;DHT22;315;48.738;9.126;2024-02-23T08:23:51;5.70;99.90
666;DHT22;315;48.738;9.126;2024-02-23T08:26:17;5.70;99.90
666;DHT22;315;48.738;9.126;2024-02-23T08:28:42;5.80;99.90
666;DHT22;315;48.738;9.126;2024-02-23T08:31:08;5.80;99.90
666;DHT22;315;48.738;9.126;2024-02-23T08:33:33;5.90;99.90
666;DHT22;315;48.738;9.126;2024-02-23T08:35:59;5.90;99.90
666;DHT22;315;48.738;9.126;2024-02-23T08:38:25;5.90;99.90
666;DHT22;315;48.738;9.126;2024-02-23T08:40:50;5.80;99.90
666;DHT22;315;48.738;9.126;2024-02-23T08:43:16;5.70;99.90
666;DHT22;315;48.738;9.126;2024-02-23T08:45:42;5.70;99.90
666;DHT22;315;48.738;9.126;2024-02-23T08:48:07;5.70;99.90
666;DHT22;315;48.738;9.126;2024-02-23T08:50:34;5.70;99.90
666;DHT22;315;48.738;9.126;2024-02-23T08:52:59;5.70;99.90
666;DHT22;315;48.738;9.126;2024-02-23T08:55:25;5.80;99.90
666;DHT22;315;48.738;9.126;2024-02-23T08:57:50;5.80;99.90
666;DHT22;315;48.738;9.126;2024-02-23T09:00:16;5.70;99.90
666;DHT22;315;48.738;9.126;2024-02-23T09:02:41;5.70;99.90
666;DHT22;315;48.738;9.126;2024-02-23T09:05:11;5.70;99.90
666;DHT22;315;48.738;9.126;2024-02-23T09:07:36;5.70;99.90
666;DHT22;315;48.738;9.126;2024-02-23T09:10:02;5.70;99.90
666;DHT22;315;48.738;9.126;2024-02-23T09:12:30;5.70;99.90
666;DHT22;315;48.738;9.126;2024-02-23T09:14:55;5.60;99.90
666;DHT22;315;48.738;9.126;2024-02-23T09:17:21;5.60;99.90
666;DHT22;315;48.738;9.126;2024-02-23T09:19:47;5.70;99.90
666;DHT22;315;48.738;9.126;2024-02-23T09:22:13;5.80;99.90
666;DHT22;315;48.738;9.126;2024-02-23T09:24:41;5.90;99.90
666;DHT22;315;48.738;9.126;2024-02-23T09:27:07;6.10;99.90
666;DHT22;315;48.738;9.126;2024-02-23T09:29:33;6.30;99.90
666;DHT22;315;48.738;9.126;2024-02-23T09:31:59;6.40;99.90
666;DHT22;315;48.738;9.126;2024-02-23T09:34:25;6.50;99.90
666;DHT22;315;48.738;9.126;2024-02-23T09:36:51;6.60;99.90
666;DHT22;315;48.738;9.126;2024-02-23T09:39:16;6.70;99.90
666;DHT22;315;48.738;9.126;2024-02-23T09:41:43;6.60;99.90
666;DHT22;315;48.738;9.126;2024-02-23T09:44:09;6.70;99.90
666;DHT22;315;48.738;9.126;2024-02-23T09:46:36;7.00;99.90
666;DHT22;315;48.738;9.126;2024-02-23T09:49:03;7.40;99.90
666;DHT22;315;48.738;9.126;2024-02-23T09:51:29;8.00;99.90
666;DHT22;315;48.738;9.126;2024-02-23T09:53:56;8.40;99.90
666;DHT22;315;48.738;9.126;2024-02-23T09:56:25;8.50;99.90
666;DHT22;315;48.738;9.126;2024-02-23T09:58:53;8.30;99.90
666;DHT22;315;48.738;9.126;2024-02-23T10:01:25;8.20;99.90
666;DHT22;315;48.738;9.126;2024-02-23T10:03:53;7.80;99.90
666;DHT22;315;48.738;9.126;2024-02-23T10:06:20;7.80;99.90
666;DHT22;315;48.738;9.126;2024-02-23T10:08:45;7.80;99.90
666;DHT22;315;48.738;9.126;2024-02-23T10:11:11;8.10;99.90
666;DHT22;315;48.738;9.126;2024-02-23T10:13:36;8.40;99.90
666;DHT22;315;48.738;9.126;2024-02-23T10:16:02;8.10;99.90
666;DHT22;315;48.738;9.126;2024-02-23T10:18:27;8.00;99.90
666;DHT22;315;48.738;9.126;2024-02-23T10:20:53;7.70;99.90
666;DHT22;315;48.738;9.126;2024-02-23T10:23:19;7.60;99.90
666;DHT22;315;48.738;9.126;2024-02-23T10:25:45;7.60;99.90
666;DHT22;315;48.738;9.126;2024-02-23T10:28:11;7.60;99.90
666;DHT22;315;48.738;9.126;2024-02-23T10:30:37;7.90;99.90
666;DHT22;315;48.738;9.126;2024-02-23T10:33:05;8.20;99.90
666;DHT22;315;48.738;9.126;2024-02-23T10:35:32;8.00;99.90
666;DHT22;315;48.738;9.126;2024-02-23T10:38:02;7.90;99.90
666;DHT22;315;48.738;9.126;2024-02-23T10:40:30;7.70;99.90
666;DHT22;315;48.738;9.126;2024-02-23T10:42:59;7.70;99.90
666;DHT22;315;48.738;9.126;2024-02-23T10:45:28;7.70;99.90
666;DHT22;315;48.738;9.126;2024-02-23T10:47:55;8.10;99.90
666;DHT22;315;48.738;9.126;2024-02-23T10:50:22;8.80;99.90
666;DHT22;315;48.738;9.126;2024-02-23T10:52:48;8.90;99.90
666;DHT22;315;48.738;9.126;2024-02-23T10:55:14;9.00;99.90
666;DHT22;315;48.738;9.126;2024-02-23T10:57:40;8.70;99.90
666;DHT22;315;48.738;9.126;2024-02-23T11:00:07;8.80;99.90
666;DHT22;315;48.738;9.126;2024-02-23T11:02:43;8.80;99.90
666;DHT22;315;48.738;9.126;2024-02-23T11:05:09;8.70;99.90
666;DHT22;315;48.738;9.126;2024-02-23T11:07:38;8.70;99.90
666;DHT22;315;48.738;9.126;2024-02-23T11:10:05;9.00;99.90
666;DHT22;315;48.738;9.126;2024-02-23T11:12:31;8.90;99.90
666;DHT22;315;48.738;9.126;2024-02-23T11:14:57;8.90;99.90
666;DHT22;315;48.738;9.126;2024-02-23T11:17:32;9.00;99.90
666;DHT22;315;48.738;9.126;2024-02-23T11:19:58;8.90;99.90
666;DHT22;315;48.738;9.126;2024-02-23T11:22:34;8.80;99.90
666;DHT22;315;48.738;9.126;2024-02-23T11:25:04;8.50;99.90
666;DHT22;315;48.738;9.126;2024-02-23T11:27:37;8.20;99.90
666;DHT22;315;48.738;9.126;2024-02-23T11:30:07;8.00;99.90
666;DHT22;315;48.738;9.126;2024-02-23T11:35:07;7.80;99.90
666;DHT22;315;48.738;9.126;2024-02-23T11:37:43;8.00;99.90
666;DHT22;315;48.738;9.126;2024-02-23T11:40:09;8.20;99.90
666;DHT22;315;48.738;9.126;2024-02-23T11:42:36;8.10;99.90
666;DHT22;315;48.738;9.126;2024-02-23T11:45:02;8.00;99.90
666;DHT22;315;48.738;9.126;2024-02-23T11:47:28;8.10;99.90
666;DHT22;315;48.738;9.126;2024-02-23T11:49:55;8.00;99.90
666;DHT22;315;48.738;9.126;2024-02-23T11:52:21;7.90;99.90
666;DHT22;315;48.738;9.126;2024-02-23T11:54:46;8.10;99.90
666;DHT22;315;48.738;9.126;2024-02-23T11:57:12;8.20;99.90
666;DHT22;315;48.738;9.126;2024-02-23T11:59:40;8.50;99.90
666;DHT22;315;48.738;9.126;2024-02-23T12:02:06;8.60;99.90
666;DHT22;315;48.738;9.126;2024-02-23T12:04:32;8.90;99.90
666;DHT22;315;48.738;9.126;2024-02-23T12:06:58;9.10;99.90
666;DHT22;315;48.738;9.126;2024-02-23T12:09:24;9.40;99.90
666;DHT22;315;48.738;9.126;2024-02-23T12:11:50;9.50;99.90
666;DHT22;315;48.738;9.126;2024-02-23T12:14:15;9.60;99.90
666;DHT22;315;48.738;9.126;2024-02-23T12:16:41;9.60;99.90
666;DHT22;315;48.738;9.126;2024-02-23T12:19:08;9.30;99.90
666;DHT22;315;48.738;9.126;2024-02-23T12:21:34;8.90;99.90
666;DHT22;315;48.738;9.126;2024-02-23T12:24:04;8.50;99.90
666;DHT22;315;48.738;9.126;2024-02-23T12:26:30;8.30;99.90
666;DHT22;315;48.738;9.126;2024-02-23T12:29:03;8.20;99.90
666;DHT22;315;48.738;9.126;2024-02-23T12:31:30;8.20;99.90
666;DHT22;315;48.738;9.126;2024-02-23T12:33:57;8.20;99.90
666;DHT22;315;48.738;9.126;2024-02-23T12:36:23;8.30;99.90
666;DHT22;315;48.738;9.126;2024-02-23T12:38:48;8.20;99.90
666;DHT22;315;48.738;9.126;2024-02-23T12:41:14;8.20;99.90
666;DHT22;315;48.738;9.126;2024-02-23T12:43:40;8.10;99.90
666;DHT22;315;48.738;9.126;2024-02-23T12:46:05;8.10;99.90
666;DHT22;315;48.738;9.126;2024-02-23T12:48:33;8.20;99.90
666;DHT22;315;48.738;9.126;2024-02-23T12:50:59;8.00;99.90
666;DHT22;315;48.738;9.126;2024-02-23T12:55:58;7.90;99.90
666;DHT22;315;48.738;9.126;2024-02-23T12:58:23;8.00;99.90
666;DHT22;315;48.738;9.126;2024-02-23T13:00:49;8.20;99.90
666;DHT22;315;48.738;9.126;2024-02-23T13:03:14;8.40;99.90
666;DHT22;315;48.738;9.126;2024-02-23T13:05:40;8.60;99.90
666;DHT22;315;48.738;9.126;2024-02-23T13:08:05;8.60;99.90
666;DHT22;315;48.738;9.126;2024-02-23T13:10:31;8.70;99.90
666;DHT22;315;48.738;9.126;2024-02-23T13:12:57;8.70;99.90
666;DHT22;315;48.738;9.126;2024-02-23T13:15:22;9.10;99.90
666;DHT22;315;48.738;9.126;2024-02-23T13:17:48;9.30;99.90
666;DHT22;315;48.738;9.126;2024-02-23T13:20:14;9.50;99.90
666;DHT22;315;48.738;9.126;2024-02-23T13:22:39;9.60;99.90
666;DHT22;315;48.738;9.126;2024-02-23T13:25:05;9.10;99.90
666;DHT22;315;48.738;9.126;2024-02-23T13:27:31;8.70;99.90
666;DHT22;315;48.738;9.126;2024-02-23T13:29:57;8.50;99.90
666;DHT22;315;48.738;9.126;2024-02-23T13:32:22;8.50;99.90
666;DHT22;315;48.738;9.126;2024-02-23T13:34:48;8.50;99.90
666;DHT22;315;48.738;9.126;2024-02-23T13:37:17;8.50;99.90
666;DHT22;315;48.738;9.126;2024-02-23T13:39:43;8.60;99.90
666;DHT22;315;48.738;9.126;2024-02-23T13:42:08;8.50;99.90
666;DHT22;315;48.738;9.126;2024-02-23T13:44:35;8.40;99.90
666;DHT22;315;48.738;9.126;2024-02-23T13:47:01;8.40;99.90
666;DHT22;315;48.738;9.126;2024-02-23T13:49:28;8.50;99.90
666;DHT22;315;48.738;9.126;2024-02-23T13:51:54;8.30;99.90
666;DHT22;315;48.738;9.126;2024-02-23T13:54:20;8.40;99.90
666;DHT22;315;48.738;9.126;2024-02-23T13:56:45;8.40;99.90
666;DHT22;315;48.738;9.126;2024-02-23T13:59:11;8.30;99.90
666;DHT22;315;48.738;9.126;2024-02-23T14:01:36;8.20;99.90
666;DHT22;315;48.738;9.126;2024-02-23T14:04:06;8.10;99.90
666;DHT22;315;48.738;9.126;2024-02-23T14:06:32;8.20;99.90
666;DHT22;315;48.738;9.126;2024-02-23T14:08:57;8.50;99.90
666;DHT22;315;48.738;9.126;2024-02-23T14:11:23;8.50;99.90
666;DHT22;315;48.738;9.126;2024-02-23T14:13:49;8.60;99.90
666;DHT22;315;48.738;9.126;2024-02-23T14:16:14;8.50;99.90
666;DHT22;315;48.738;9.126;2024-02-23T14:18:40;8.50;99.90
666;DHT22;315;48.738;9.126;2024-02-23T14:21:08;8.60;99.90
666;DHT22;315;48.738;9.126;2024-02-23T14:23:33;8.50;99.90
666;DHT22;315;48.738;9.126;2024-02-23T14:25:59;8.50;99.90
666;DHT22;315;48.738;9.126;2024-02-23T14:28:25;8.60;99.90
666;DHT22;315;48.738;9.126;2024-02-23T14:30:51;8.70;99.90
666;DHT22;315;48.738;9.126;2024-02-23T14:33:18;8.80;99.90
666;DHT22;315;48.738;9.126;2024-02-23T14:35:44;8.80;99.90
666;DHT22;315;48.738;9.126;2024-02-23T14:38:09;9.00;99.90
666;DHT22;315;48.738;9.126;2024-02-23T14:40:35;9.20;99.90
666;DHT22;315;48.738;9.126;2024-02-23T14:43:00;9.10;99.90
666;DHT22;315;48.738;9.126;2024-02-23T14:45:26;9.10;99.90
666;DHT22;315;48.738;9.126;2024-02-23T14:47:53;9.20;99.90
666;DHT22;315;48.738;9.126;2024-02-23T14:50:19;9.10;99.90
666;DHT22;315;48.738;9.126;2024-02-23T14:52:45;8.90;99.90
666;DHT22;315;48.738;9.126;2024-02-23T14:55:10;8.70;99.90
666;DHT22;315;48.738;9.126;2024-02-23T14:57:39;8.70;99.90
666;DHT22;315;48.738;9.126;2024-02-23T15:00:05;8.70;99.90
666;DHT22;315;48.738;9.126;2024-02-23T15:02:31;8.70;99.90
666;DHT22;315;48.738;9.126;2024-02-23T15:04:56;8.60;99.90
666;DHT22;315;48.738;9.126;2024-02-23T15:07:22;8.50;99.90
666;DHT22;315;48.738;9.126;2024-02-23T15:09:47;8.40;99.90
666;DHT22;315;48.738;9.126;2024-02-23T15:12:13;8.30;99.90
666;DHT22;315;48.738;9.126;2024-02-23T15:14:39;8.30;99.90
666;DHT22;315;48.738;9.126;2024-02-23T15:17:05;8.30;99.90
666;DHT22;315;48.738;9.126;2024-02-23T15:19:30;8.20;99.90
666;DHT22;315;48.738;9.126;2024-02-23T15:21:56;8.20;99.90
666;DHT22;315;48.738;9.126;2024-02-23T15:24:22;8.20;99.90
666;DHT22;315;48.738;9.126;2024-02-23T15:26:50;8.30;99.90
666;DHT22;315;48.738;9.126;2024-02-23T15:29:16;8.30;99.90
666;DHT22;315;48.738;9.126;2024-02-23T15:31:41;8.20;99.90
666;DHT22;315;48.738;9.126;2024-02-23T15:34:08;8.20;99.90
666;DHT22;315;48.738;9.126;2024-02-23T15:36:34;8.20;99.90
666;DHT22;315;48.738;9.126;2024-02-23T15:38:59;8.20;99.90
666;DHT22;315;48.738;9.126;2024-02-23T15:41:29;8.20;99.90
666;DHT22;315;48.738;9.126;2024-02-23T15:43:55;8.20;99.90
666;DHT22;315;48.738;9.126;2024-02-23T15:46:20;8.20;99.90
666;DHT22;315;48.738;9.126;2024-02-23T15:48:46;8.20;99.90
666;DHT22;315;48.738;9.126;2024-02-23T15:51:11;8.10;99.90
666;DHT22;315;48.738;9.126;2024-02-23T15:53:37;8.10;99.90
666;DHT22;315;48.738;9.126;2024-02-23T15:56:02;8.20;99.90
666;DHT22;315;48.738;9.126;2024-02-23T15:58:28;8.30;99.90
666;DHT22;315;48.738;9.126;2024-02-23T16:00:54;8.20;99.90
666;DHT22;315;48.738;9.126;2024-02-23T16:03:21;7.80;99.90
666;DHT22;315;48.738;9.126;2024-02-23T16:05:46;7.60;99.90
666;DHT22;315;48.738;9.126;2024-02-23T16:08:12;7.40;99.90
666;DHT22;315;48.738;9.126;2024-02-23T16:10:38;7.20;99.90
666;DHT22;315;48.738;9.126;2024-02-23T16:13:08;7.10;99.90
666;DHT22;315;48.738;9.126;2024-02-23T16:15:33;7.00;99.90
666;DHT22;315;48.738;9.126;2024-02-23T16:17:59;6.90;99.90
666;DHT22;315;48.738;9.126;2024-02-23T16:20:24;6.90;99.90
666;DHT22;315;48.738;9.126;2024-02-23T16:22:51;6.90;99.90
666;DHT22;315;48.738;9.126;2024-02-23T16:25:18;6.90;99.90
666;DHT22;315;48.738;9.126;2024-02-23T16:27:44;7.00;99.90
666;DHT22;315;48.738;9.126;2024-02-23T16:30:10;7.00;99.90
666;DHT22;315;48.738;9.126;2024-02-23T16:32:36;7.10;99.90
666;DHT22;315;48.738;9.126;2024-02-23T16:35:02;7.10;99.90
666;DHT22;315;48.738;9.126;2024-02-23T16:37:29;7.10;99.90
666;DHT22;315;48.738;9.126;2024-02-23T16:39:55;7.10;99.90
666;DHT22;315;48.738;9.126;2024-02-23T16:42:20;7.00;99.90
666;DHT22;315;48.738;9.126;2024-02-23T16:44:46;7.10;99.90
666;DHT22;315;48.738;9.126;2024-02-23T16:47:12;7.10;99.90